Time;durP1;ratioP1;P1;durP2;ratioP2;P2;SDS_P1;SDS_P2;PMS_P1;PMS_P2;Temp;Humidity;BMP_temperature;BMP_pressure;BME280_temperature;BME280_humidity;BME280_pressure;Samples;Min_cycle;Max_cycle;Signal;HPM_P1;HPM_P2
2023/11/11 06:02:39;;;;;;;;;;;;;;;;;;4996172;23;20414;-45
2023/11/11 06:05:05;;;;;;;;;;;;;;;;;;4970103;28;19957;-42
2023/11/11 06:07:31;;;;;;;;;;;;;;;;;;4970031;28;19913;-42
2023/11/11 06:09:57;;;;;;;;;;;;;;;;;;4970290;28;19910;-45
2023/11/11 06:12:23;;;;;;;;;;;;;;;;;;4969960;28;20010;-42
2023/11/11 06:14:49;;;;;;;;;;;;;;;;;;4969930;28;19993;-42
2023/11/11 06:17:15;;;;;;;;;;;;;;;;;;4970314;28;19910;-41
2023/11/11 06:19:41;;;;;;;;;;;;;;;;;;4970105;28;20025;-42
2023/11/11 06:22:07;;;;;;;;;;;;;;;;;;4970058;28;19929;-42
2023/11/11 06:24:33;;;;;;;;;;;;;;;;;;4970185;28;19910;-42
2023/11/11 06:26:59;;;;;;;;;;;;;;;;;;4970011;28;19910;-42
2023/11/11 06:29:24;;;;;;;;;;;;;;;;;;4969872;28;20294;-43
2023/11/11 06:31:52;;;;;;;;;;;;;;;;;;4969884;28;19965;-43
2023/11/11 06:34:19;;;;;;;;;;;;;;;;;;4972570;28;19964;-42
2023/11/11 06:36:45;;;;;;;;;;;;;;;;;;4973229;28;19910;-42
2023/11/11 06:39:13;;;;;;;;;;;;;;;;;;4988198;28;19922;-42
2023/11/11 06:41:38;;;;;;;;;;;;;;;;;;4974560;28;19976;-42
2023/11/11 06:44:05;;;;;;;;;;;;;;;;;;4974042;28;20501;-41
2023/11/11 06:46:31;;;;;;;;;;;;;;;;;;4974255;28;19910;-42
2023/11/11 06:48:57;;;;;;;;;;;;;;;;;;4973789;28;19920;-42
2023/11/11 06:51:24;;;;;;;;;;;;;;;;;;4974167;28;19910;-43
2023/11/11 06:53:50;;;;;;;;;;;;;;;;;;4980689;28;20297;-43
2023/11/11 06:56:16;;;;;;;;;;;;;;;;;;4979293;28;19915;-43
2023/11/11 06:58:42;;;;;;;;;;;;;;;;;;4972747;28;20330;-42
2023/11/11 07:01:08;;;;;;;;;;;;;;;;;;4979387;28;19926;-42
2023/11/11 07:03:35;;;;;;;;;;;;;;;;;;4980501;28;19910;-43
2023/11/11 07:06:01;;;;;;;;;;;;;;;;;;4974122;28;19910;-43
2023/11/11 07:08:28;;;;;;;;;;;;;;;;;;4973860;28;20032;-43
2023/11/11 07:10:53;;;;;;;;;;;;;;;;;;4973998;28;19917;-42
2023/11/11 07:13:23;;;;;;;;;;;;;;;;;;4973660;28;19914;-43
2023/11/11 07:15:49;;;;;;;;;;;;;;;;;;4974127;28;19910;-43
2023/11/11 07:18:15;;;;;;;;;;;;;;;;;;4993053;28;19917;-42
2023/11/11 07:20:42;;;;;;;;;;;;;;;;;;4993522;28;19918;-43
2023/11/11 07:23:08;;;;;;;;;;;;;;;;;;4991687;28;19956;-43
2023/11/11 07:25:33;;;;;;;;;;;;;;;;;;4973603;28;19950;-43
2023/11/11 07:27:59;;;;;;;;;;;;;;;;;;4972308;28;19918;-42
2023/11/11 07:30:26;;;;;;;;;;;;;;;;;;4973841;28;19914;-43
2023/11/11 07:32:52;;;;;;;;;;;;;;;;;;4973052;28;19938;-44
2023/11/11 07:35:18;;;;;;;;;;;;;;;;;;4973266;28;19914;-43
2023/11/11 07:37:46;;;;;;;;;;;;;;;;;;4971554;28;19914;-44
2023/11/11 07:40:14;;;;;;;;;;;;;;;;;;4972421;28;19910;-43
2023/11/11 07:42:40;;;;;;;;;;;;;;;;;;4972278;28;19911;-43
2023/11/11 07:45:06;;;;;;;;;;;;;;;;;;4971101;28;19911;-43
2023/11/11 07:47:31;;;;;;;;;;;;;;;;;;4972124;28;19910;-44
2023/11/11 07:49:57;;;;;;;;;;;;;;;;;;4971988;28;19910;-44
2023/11/11 07:52:25;;;;;;;;;;;;;;;;;;4971403;28;20216;-44
2023/11/11 07:54:50;;;;;;;;;;;;;;;;;;4972314;28;20001;-45
2023/11/11 07:57:17;;;;;;;;;;;;;;;;;;4969925;28;20438;-43
2023/11/11 07:59:43;;;;;;;;;;;;;;;;;;4970157;28;20009;-43
2023/11/11 08:02:12;;;;;;;;;;;;;;;;;;4970551;28;19925;-44
2023/11/11 08:04:38;;;;;;;;;;;;;;;;;;4973078;28;19918;-43
2023/11/11 08:07:04;;;;;;;;;;;;;;;;;;4971738;28;19914;-44
2023/11/11 08:09:31;;;;;;;;;;;;;;;;;;4972708;28;19929;-42
2023/11/11 08:11:57;;;;;;;;;;;;;;;;;;4971241;28;19918;-43
2023/11/11 08:14:23;;;;;;;;;;;;;;;;;;4972783;28;19910;-44
2023/11/11 08:16:49;;;;;;;;;;;;;;;;;;4971033;28;19921;-43
2023/11/11 08:19:15;;;;;;;;;;;;;;;;;;4972018;28;19937;-46
2023/11/11 08:21:41;;;;;;;;;;;;;;;;;;4970572;28;19973;-44
2023/11/11 08:24:08;;;;;;;;;;;;;;;;;;4970292;28;20013;-46
2023/11/11 08:26:33;;;;;;;;;;;;;;;;;;4972278;28;19997;-44
2023/11/11 08:28:59;;;;;;;;;;;;;;;;;;4972435;28;20029;-45
2023/11/11 08:31:25;;;;;;;;;;;;;;;;;;4972679;28;19965;-43
2023/11/11 08:33:51;;;;;;;;;;;;;;;;;;4971196;28;19969;-43
2023/11/11 08:36:17;;;;;;;;;;;;;;;;;;4971439;28;20375;-44
2023/11/11 08:38:43;;;;;;;;;;;;;;;;;;4971919;28;19914;-44
2023/11/11 08:41:09;;;;;;;;;;;;;;;;;;4970085;28;20389;-44
2023/11/11 08:43:35;;;;;;;;;;;;;;;;;;4972133;28;19910;-44
2023/11/11 08:46:01;;;;;;;;;;;;;;;;;;4972101;28;19918;-44
2023/11/11 08:48:30;;;;;;;;;;;;;;;;;;4972198;28;19914;-43
2023/11/11 08:50:56;;;;;;;;;;;;;;;;;;4971213;28;19918;-43
2023/11/11 08:53:22;;;;;;;;;;;;;;;;;;4972496;28;20000;-43
2023/11/11 08:55:48;;;;;;;;;;;;;;;;;;4970640;28;20417;-44
2023/11/11 08:58:14;;;;;;;;;;;;;;;;;;4970175;28;19954;-44
2023/11/11 09:00:40;;;;;;;;;;;;;;;;;;4966568;28;19922;-46
2023/11/11 09:03:06;;;;;;;;;;;;;;;;;;4974371;28;19914;-44
2023/11/11 09:05:32;;;;;;;;;;;;;;;;;;4967554;28;19921;-43
2023/11/11 09:07:58;;;;;;;;;;;;;;;;;;4983570;28;19918;-43
2023/11/11 09:10:27;;;;;;;;;;;;;;;;;;4973222;28;19921;-45
2023/11/11 09:12:53;;;;;;;;;;;;;;;;;;4972254;28;19910;-44
2023/11/11 09:15:20;;;;;;;;;;;;;;;;;;4970347;28;19918;-47
2023/11/11 09:17:47;;;;;;;;;;;;;;;;;;4974983;28;19980;-46
2023/11/11 09:20:14;;;;;;;;;;;;;;;;;;4980063;28;19983;-47
2023/11/11 09:22:40;;;;;;;;;;;;;;;;;;4970491;28;19952;-43
2023/11/11 09:25:06;;;;;;;;;;;;;;;;;;4972601;28;19915;-44
2023/11/11 09:27:32;;;;;;;;;;;;;;;;;;4980350;28;20389;-45
2023/11/11 09:29:58;;;;;;;;;;;;;;;;;;4970122;28;19916;-45
2023/11/11 09:32:23;;;;;;;;;;;;;;;;;;4969840;28;19910;-43
2023/11/11 09:34:49;;;;;;;;;;;;;;;;;;4970362;28;19914;-44
2023/11/11 09:37:15;;;;;;;;;;;;;;;;;;4969671;28;19993;-44
2023/11/11 09:39:41;;;;;;;;;;;;;;;;;;4969775;28;19918;-45
2023/11/11 09:42:07;;;;;;;;;;;;;;;;;;4969556;28;19921;-44
2023/11/11 09:44:33;;;;;;;;;;;;;;;;;;4970504;28;19972;-45
2023/11/11 09:46:59;;;;;;;;;;;;;;;;;;4970453;28;20002;-45
2023/11/11 09:49:27;;;;;;;;;;;;;;;;;;4970469;28;19997;-44
2023/11/11 09:51:53;;;;;;;;;;;;;;;;;;4971146;28;19956;-44
2023/11/11 09:54:19;;;;;;;;;;;;;;;;;;4969403;28;19980;-44
2023/11/11 09:56:45;;;;;;;;;;;;;;;;;;4969519;28;19914;-44
2023/11/11 09:59:11;;;;;;;;;;;;;;;;;;4965159;28;19917;-46
2023/11/11 10:01:37;;;;;;;;;;;;;;;;;;4976721;28;20390;-47
2023/11/11 10:04:03;;;;;;;;;;;;;;;;;;4970068;28;20601;-44
2023/11/11 10:06:29;;;;;;;;;;;;;;;;;;4971229;28;19925;-44
2023/11/11 10:08:55;;;;;;;;;;;;;;;;;;4973124;28;20009;-44
2023/11/11 10:11:20;;;;;;;;;;;;;;;;;;4974690;28;19914;-44
2023/11/11 10:13:46;;;;;;;;;;;;;;;;;;4975960;28;19917;-44
2023/11/11 10:16:18;;;;;;;;;;;;;;;;;;4975838;28;20294;-44
2023/11/11 10:18:47;;;;;;;;;;;;;;;;;;4975295;28;19914;-43
2023/11/11 10:21:16;;;;;;;;;;;;;;;;;;4975586;28;20010;-47
2023/11/11 10:23:44;;;;;;;;;;;;;;;;;;4975679;28;19917;-46
2023/11/11 10:26:10;;;;;;;;;;;;;;;;;;4975586;28;19910;-43
2023/11/11 10:28:36;;;;;;;;;;;;;;;;;;4975428;28;20008;-43
2023/11/11 10:31:01;;;;;;;;;;;;;;;;;;4975487;28;19911;-44
2023/11/11 10:33:27;;;;;;;;;;;;;;;;;;4975777;28;19910;-47
2023/11/11 10:35:53;;;;;;;;;;;;;;;;;;4975632;28;19950;-43
2023/11/11 10:38:19;;;;;;;;;;;;;;;;;;4975272;28;20241;-43
2023/11/11 10:40:45;;;;;;;;;;;;;;;;;;4974414;28;19914;-43
2023/11/11 10:43:11;;;;;;;;;;;;;;;;;;4975429;28;19956;-43
2023/11/11 10:45:37;;;;;;;;;;;;;;;;;;4975367;28;19911;-43
2023/11/11 10:48:03;;;;;;;;;;;;;;;;;;4974895;28;19929;-44
2023/11/11 10:50:28;;;;;;;;;;;;;;;;;;4975626;28;19910;-43
2023/11/11 10:52:54;;;;;;;;;;;;;;;;;;4974194;28;20325;-43
2023/11/11 10:55:20;;;;;;;;;;;;;;;;;;4975038;28;19914;-44
2023/11/11 10:57:46;;;;;;;;;;;;;;;;;;4975071;28;19910;-44
2023/11/11 11:00:24;;;;;;;;;;;;;;;;;;4975053;28;19916;-43
2023/11/11 11:02:50;;;;;;;;;;;;;;;;;;4975045;28;20514;-43
2023/11/11 11:05:16;;;;;;;;;;;;;;;;;;4975045;28;19910;-43
2023/11/11 11:07:42;;;;;;;;;;;;;;;;;;4974979;28;19911;-43
2023/11/11 11:10:08;;;;;;;;;;;;;;;;;;4973492;28;22597;-44
2023/11/11 11:12:34;;;;;;;;;;;;;;;;;;4974418;28;19914;-45
2023/11/11 11:15:00;;;;;;;;;;;;;;;;;;4955674;28;20311;-43
2023/11/11 11:17:26;;;;;;;;;;;;;;;;;;4966816;28;19985;-46
2023/11/11 11:19:52;;;;;;;;;;;;;;;;;;4953318;28;20376;-47
2023/11/11 11:22:19;;;;;;;;;;;;;;;;;;4971845;28;19918;-47
2023/11/11 11:24:45;;;;;;;;;;;;;;;;;;4972956;28;19941;-44
2023/11/11 11:27:11;;;;;;;;;;;;;;;;;;4972748;28;19910;-44
2023/11/11 11:29:37;;;;;;;;;;;;;;;;;;4972223;28;19914;-44
2023/11/11 11:32:03;;;;;;;;;;;;;;;;;;4971658;28;19950;-44
2023/11/11 11:34:29;;;;;;;;;;;;;;;;;;4971765;28;19914;-43
2023/11/11 11:36:55;;;;;;;;;;;;;;;;;;4970399;28;19922;-47
2023/11/11 11:39:20;;;;;;;;;;;;;;;;;;4972300;28;19913;-45
2023/11/11 11:41:46;;;;;;;;;;;;;;;;;;4967915;28;19910;-47
2023/11/11 11:44:15;;;;;;;;;;;;;;;;;;4971348;28;19914;-45
2023/11/11 11:46:41;;;;;;;;;;;;;;;;;;4971230;28;20001;-43
2023/11/11 11:49:10;;;;;;;;;;;;;;;;;;4972309;28;20081;-46
2023/11/11 11:54:05;;;;;;;;;;;;;;;;;;4992581;28;20076;-49
2023/11/11 11:56:31;;;;;;;;;;;;;;;;;;4994233;28;19914;-48
2023/11/11 11:58:58;;;;;;;;;;;;;;;;;;4988905;28;19921;-48
2023/11/11 12:01:25;;;;;;;;;;;;;;;;;;4991640;28;20300;-48
2023/11/11 12:03:51;;;;;;;;;;;;;;;;;;4992179;28;20409;-49
2023/11/11 12:06:17;;;;;;;;;;;;;;;;;;4991522;28;19910;-48
2023/11/11 12:08:43;;;;;;;;;;;;;;;;;;4991435;28;19972;-49
2023/11/11 12:11:09;;;;;;;;;;;;;;;;;;4989897;28;19968;-49
2023/11/11 12:13:35;;;;;;;;;;;;;;;;;;4990816;28;19997;-48
2023/11/11 12:16:01;;;;;;;;;;;;;;;;;;4990570;28;19997;-50
2023/11/11 12:18:27;;;;;;;;;;;;;;;;;;4990952;28;19909;-49
2023/11/11 12:20:53;;;;;;;;;;;;;;;;;;4991720;28;19910;-51
2023/11/11 12:23:19;;;;;;;;;;;;;;;;;;4990355;28;19914;-52
2023/11/11 12:25:45;;;;;;;;;;;;;;;;;;4990935;28;19964;-51
2023/11/11 12:28:11;;;;;;;;;;;;;;;;;;4990511;28;20393;-51
2023/11/11 12:30:36;;;;;;;;;;;;;;;;;;4986820;28;19929;-50
2023/11/11 12:33:03;;;;;;;;;;;;;;;;;;4982212;28;19910;-53
2023/11/11 12:35:29;;;;;;;;;;;;;;;;;;4991032;28;19914;-50
2023/11/11 12:37:55;;;;;;;;;;;;;;;;;;4980881;28;19968;-52
2023/11/11 12:40:22;;;;;;;;;;;;;;;;;;4990979;28;19910;-51
2023/11/11 12:42:48;;;;;;;;;;;;;;;;;;4979775;28;19933;-51
2023/11/11 12:45:14;;;;;;;;;;;;;;;;;;4990976;28;19914;-51
2023/11/11 12:47:41;;;;;;;;;;;;;;;;;;4984114;28;19914;-49
2023/11/11 12:50:08;;;;;;;;;;;;;;;;;;4988470;28;19910;-49
2023/11/11 12:52:34;;;;;;;;;;;;;;;;;;4990591;28;19918;-48
2023/11/11 12:55:02;;;;;;;;;;;;;;;;;;4989737;28;19918;-49
2023/11/11 12:57:28;;;;;;;;;;;;;;;;;;4983335;28;19910;-44
2023/11/11 12:59:54;;;;;;;;;;;;;;;;;;4991077;28;19996;-45
2023/11/11 13:02:22;;;;;;;;;;;;;;;;;;4990365;28;20009;-43
2023/11/11 13:04:48;;;;;;;;;;;;;;;;;;4990628;28;19925;-43
2023/11/11 13:07:14;;;;;;;;;;;;;;;;;;4990399;28;20269;-43
2023/11/11 13:09:43;;;;;;;;;;;;;;;;;;4990410;28;20016;-44
2023/11/11 13:12:08;;;;;;;;;;;;;;;;;;4986696;28;20931;-44
2023/11/11 13:14:35;;;;;;;;;;;;;;;;;;4986877;28;19997;-43
2023/11/11 13:17:04;;;;;;;;;;;;;;;;;;4989012;28;19941;-43
2023/11/11 13:19:34;;;;;;;;;;;;;;;;;;4990324;28;19921;-45
2023/11/11 13:22:00;;;;;;;;;;;;;;;;;;4992211;28;20370;-44
2023/11/11 13:24:26;;;;;;;;;;;;;;;;;;4992092;28;20000;-43
2023/11/11 13:26:52;;;;;;;;;;;;;;;;;;4992287;28;19910;-44
2023/11/11 13:29:18;;;;;;;;;;;;;;;;;;4991915;28;20362;-43
2023/11/11 13:31:47;;;;;;;;;;;;;;;;;;4990582;28;19921;-43
2023/11/11 13:34:13;;;;;;;;;;;;;;;;;;4991182;28;19925;-44
2023/11/11 13:36:40;;;;;;;;;;;;;;;;;;4991775;28;19936;-43
2023/11/11 13:39:19;;;;;;;;;;;;;;;;;;4992007;28;19973;-44
2023/11/11 13:41:47;;;;;;;;;;;;;;;;;;4992102;28;19910;-43
2023/11/11 13:44:14;;;;;;;;;;;;;;;;;;4995053;28;20000;-45
2023/11/11 13:46:40;;;;;;;;;;;;;;;;;;4995593;28;19913;-43
2023/11/11 13:49:07;;;;;;;;;;;;;;;;;;4994859;28;19933;-43
2023/11/11 13:51:33;;;;;;;;;;;;;;;;;;4994897;28;19921;-43
2023/11/11 13:53:59;;;;;;;;;;;;;;;;;;4991668;28;19918;-44
2023/11/11 13:56:25;;;;;;;;;;;;;;;;;;4995387;28;19909;-45
2023/11/11 13:58:52;;;;;;;;;;;;;;;;;;4994776;28;19917;-43
2023/11/11 14:01:18;;;;;;;;;;;;;;;;;;4994952;28;19914;-44
2023/11/11 14:03:47;;;;;;;;;;;;;;;;;;4995443;28;20400;-44
2023/11/11 14:06:12;;;;;;;;;;;;;;;;;;4997622;28;19960;-43
2023/11/11 14:08:38;;;;;;;;;;;;;;;;;;4992439;28;20390;-43
2023/11/11 14:11:07;;;;;;;;;;;;;;;;;;4995518;28;19953;-43
2023/11/11 14:13:33;;;;;;;;;;;;;;;;;;4993725;28;19937;-43
2023/11/11 14:16:00;;;;;;;;;;;;;;;;;;4994236;28;20833;-45
2023/11/11 14:18:26;;;;;;;;;;;;;;;;;;4993794;28;20365;-44
2023/11/11 14:20:59;;;;;;;;;;;;;;;;;;4994461;28;19910;-44
2023/11/11 14:23:25;;;;;;;;;;;;;;;;;;4998694;28;19910;-43
2023/11/11 14:25:51;;;;;;;;;;;;;;;;;;4977554;28;19910;-43
2023/11/11 14:28:17;;;;;;;;;;;;;;;;;;4994981;28;19918;-44
2023/11/11 14:30:44;;;;;;;;;;;;;;;;;;4994397;28;19964;-44
2023/11/11 14:33:10;;;;;;;;;;;;;;;;;;4993688;28;19918;-44
2023/11/11 14:35:36;;;;;;;;;;;;;;;;;;4994634;28;19914;-44
2023/11/11 14:38:03;;;;;;;;;;;;;;;;;;4994292;28;19968;-43
2023/11/11 14:40:29;;;;;;;;;;;;;;;;;;4994927;28;19910;-44
2023/11/11 14:42:58;;;;;;;;;;;;;;;;;;4994152;28;19921;-43
2023/11/11 14:45:25;;;;;;;;;;;;;;;;;;4992984;28;19914;-43
2023/11/11 14:47:51;;;;;;;;;;;;;;;;;;4993303;28;19913;-44
2023/11/11 14:50:17;;;;;;;;;;;;;;;;;;4994058;28;20444;-44
2023/11/11 14:52:43;;;;;;;;;;;;;;;;;;4994595;28;19934;-44
2023/11/11 14:55:17;;;;;;;;;;;;;;;;;;4993377;28;19982;-43
2023/11/11 14:57:42;;;;;;;;;;;;;;;;;;4993510;28;19917;-43
2023/11/11 15:00:08;;;;;;;;;;;;;;;;;;4996175;28;20056;-44
2023/11/11 15:02:36;;;;;;;;;;;;;;;;;;4994266;28;19917;-45
2023/11/11 15:05:03;;;;;;;;;;;;;;;;;;4994438;28;20390;-44
2023/11/11 15:07:29;;;;;;;;;;;;;;;;;;4993433;28;20283;-44
2023/11/11 15:09:55;;;;;;;;;;;;;;;;;;4994248;28;19920;-44
2023/11/11 15:12:25;;;;;;;;;;;;;;;;;;4993103;28;19961;-44
2023/11/11 15:14:53;;;;;;;;;;;;;;;;;;4990968;28;19913;-44
2023/11/11 15:17:19;;;;;;;;;;;;;;;;;;4993752;28;19921;-45
2023/11/11 15:19:46;;;;;;;;;;;;;;;;;;4993134;28;19910;-44
2023/11/11 15:22:14;;;;;;;;;;;;;;;;;;4992393;28;20425;-44
2023/11/11 15:24:40;;;;;;;;;;;;;;;;;;4992514;28;20371;-45
2023/11/11 15:27:07;;;;;;;;;;;;;;;;;;4991915;28;19921;-44
2023/11/11 15:29:34;;;;;;;;;;;;;;;;;;4992176;28;19960;-44
2023/11/11 15:32:01;;;;;;;;;;;;;;;;;;4991490;28;19914;-44
2023/11/11 15:34:27;;;;;;;;;;;;;;;;;;5002988;28;19989;-44
2023/11/11 15:36:56;;;;;;;;;;;;;;;;;;4991970;28;19963;-44
2023/11/11 15:39:23;;;;;;;;;;;;;;;;;;4992135;28;20016;-45
2023/11/11 15:41:49;;;;;;;;;;;;;;;;;;4992541;28;19914;-45
2023/11/11 15:44:15;;;;;;;;;;;;;;;;;;4990803;28;19921;-43
2023/11/11 15:46:41;;;;;;;;;;;;;;;;;;4991367;28;19921;-44
2023/11/11 15:49:07;;;;;;;;;;;;;;;;;;4991087;28;19969;-44
2023/11/11 15:51:33;;;;;;;;;;;;;;;;;;4992086;28;19918;-47
2023/11/11 15:54:00;;;;;;;;;;;;;;;;;;4991890;28;19990;-45
2023/11/11 15:56:25;;;;;;;;;;;;;;;;;;4990810;28;20274;-44
2023/11/11 15:58:52;;;;;;;;;;;;;;;;;;4992019;28;19909;-43
2023/11/11 16:01:18;;;;;;;;;;;;;;;;;;4991711;28;19920;-43
2023/11/11 16:03:47;;;;;;;;;;;;;;;;;;4990664;28;19914;-43
2023/11/11 16:06:13;;;;;;;;;;;;;;;;;;4990844;28;20004;-45
2023/11/11 16:08:39;;;;;;;;;;;;;;;;;;4974149;28;20016;-45
2023/11/11 16:11:05;;;;;;;;;;;;;;;;;;4990670;28;19917;-45
2023/11/11 16:13:31;;;;;;;;;;;;;;;;;;4991178;28;19913;-44
2023/11/11 16:15:57;;;;;;;;;;;;;;;;;;4989896;28;20283;-45
2023/11/11 16:18:23;;;;;;;;;;;;;;;;;;4990548;28;19909;-44
2023/11/11 16:20:50;;;;;;;;;;;;;;;;;;4991534;28;19914;-43
2023/11/11 16:23:16;;;;;;;;;;;;;;;;;;4990868;28;19916;-44
2023/11/11 16:25:42;;;;;;;;;;;;;;;;;;4991044;28;19921;-43
2023/11/11 16:28:09;;;;;;;;;;;;;;;;;;4990239;28;20374;-43
2023/11/11 16:30:35;;;;;;;;;;;;;;;;;;4989922;28;19914;-44
2023/11/11 16:33:01;;;;;;;;;;;;;;;;;;4989279;28;19910;-43
2023/11/11 16:35:27;;;;;;;;;;;;;;;;;;4984459;28;19922;-43
2023/11/11 16:37:53;;;;;;;;;;;;;;;;;;4988982;28;20016;-44
2023/11/11 16:40:19;;;;;;;;;;;;;;;;;;4990835;28;19921;-45
2023/11/11 16:42:45;;;;;;;;;;;;;;;;;;4991171;28;19914;-44
2023/11/11 16:45:11;;;;;;;;;;;;;;;;;;4991181;28;19910;-47
2023/11/11 16:47:36;;;;;;;;;;;;;;;;;;4988820;28;19910;-45
2023/11/11 16:50:03;;;;;;;;;;;;;;;;;;4990680;28;19918;-44
2023/11/11 16:52:29;;;;;;;;;;;;;;;;;;4990816;28;20022;-45
2023/11/11 16:54:55;;;;;;;;;;;;;;;;;;4990554;28;19922;-47
2023/11/11 16:57:21;;;;;;;;;;;;;;;;;;4994613;28;19914;-45
2023/11/11 16:59:51;;;;;;;;;;;;;;;;;;4990745;28;19910;-43
2023/11/11 17:02:17;;;;;;;;;;;;;;;;;;4990545;28;20374;-45
2023/11/11 17:04:43;;;;;;;;;;;;;;;;;;4990248;28;19916;-44
2023/11/11 17:07:09;;;;;;;;;;;;;;;;;;4992076;28;19918;-44
2023/11/11 17:09:37;;;;;;;;;;;;;;;;;;4990749;28;20501;-44
2023/11/11 17:12:03;;;;;;;;;;;;;;;;;;5000133;28;20433;-46
2023/11/11 17:14:29;;;;;;;;;;;;;;;;;;4989204;28;19918;-44
2023/11/11 17:16:55;;;;;;;;;;;;;;;;;;4990477;28;19933;-44
2023/11/11 17:19:21;;;;;;;;;;;;;;;;;;4989636;28;19914;-43
2023/11/11 17:21:47;;;;;;;;;;;;;;;;;;4990020;28;19909;-44
2023/11/11 17:24:13;;;;;;;;;;;;;;;;;;4989579;28;20349;-43
2023/11/11 17:26:40;;;;;;;;;;;;;;;;;;4989505;28;19909;-43
2023/11/11 17:29:07;;;;;;;;;;;;;;;;;;4987301;28;19929;-44
2023/11/11 17:31:33;;;;;;;;;;;;;;;;;;4985332;28;19920;-44
2023/11/11 17:33:59;;;;;;;;;;;;;;;;;;4986026;28;20305;-43
2023/11/11 17:36:30;;;;;;;;;;;;;;;;;;4985508;28;19914;-43
2023/11/11 17:38:56;;;;;;;;;;;;;;;;;;4988742;28;19959;-43
2023/11/11 17:41:22;;;;;;;;;;;;;;;;;;4990090;28;20015;-43
2023/11/11 17:43:48;;;;;;;;;;;;;;;;;;4987647;28;19914;-42
2023/11/11 17:46:15;;;;;;;;;;;;;;;;;;4982598;28;20409;-42
2023/11/11 17:48:41;;;;;;;;;;;;;;;;;;4969142;28;19925;-44
2023/11/11 17:51:08;;;;;;;;;;;;;;;;;;4985348;28;19992;-43
2023/11/11 17:53:34;;;;;;;;;;;;;;;;;;4984899;28;20420;-43
2023/11/11 17:56:00;;;;;;;;;;;;;;;;;;4989673;28;19917;-43
2023/11/11 17:58:26;;;;;;;;;;;;;;;;;;4986469;28;19918;-42
2023/11/11 18:00:52;;;;;;;;;;;;;;;;;;4987012;28;20294;-43
2023/11/11 18:03:18;;;;;;;;;;;;;;;;;;4986182;28;19914;-43
2023/11/11 18:05:43;;;;;;;;;;;;;;;;;;4985022;28;19913;-43
2023/11/11 18:08:09;;;;;;;;;;;;;;;;;;4985529;28;19922;-43
2023/11/11 18:10:35;;;;;;;;;;;;;;;;;;4968567;28;19910;-43
2023/11/11 18:13:02;;;;;;;;;;;;;;;;;;4991651;28;19936;-43
2023/11/11 18:15:28;;;;;;;;;;;;;;;;;;4984181;28;19913;-44
2023/11/11 18:17:54;;;;;;;;;;;;;;;;;;4985317;28;19920;-43
2023/11/11 18:20:20;;;;;;;;;;;;;;;;;;4985892;28;20466;-44
2023/11/11 18:22:45;;;;;;;;;;;;;;;;;;4989238;28;19988;-43
2023/11/11 18:25:12;;;;;;;;;;;;;;;;;;4985944;28;19996;-45
2023/11/11 18:27:37;;;;;;;;;;;;;;;;;;4985098;28;20325;-43
2023/11/11 18:30:03;;;;;;;;;;;;;;;;;;4988435;28;20063;-43
2023/11/11 18:32:29;;;;;;;;;;;;;;;;;;4988606;28;19925;-44
2023/11/11 18:34:55;;;;;;;;;;;;;;;;;;4970043;28;19928;-43
2023/11/11 18:37:21;;;;;;;;;;;;;;;;;;4989376;28;19913;-43
2023/11/11 18:39:48;;;;;;;;;;;;;;;;;;4991410;28;19914;-44
2023/11/11 18:42:14;;;;;;;;;;;;;;;;;;4989887;28;19937;-43
2023/11/11 18:44:40;;;;;;;;;;;;;;;;;;4980603;28;20097;-43
2023/11/11 18:47:06;;;;;;;;;;;;;;;;;;4970937;28;19918;-43
2023/11/11 18:49:32;;;;;;;;;;;;;;;;;;4991100;28;19928;-43
2023/11/11 18:51:58;;;;;;;;;;;;;;;;;;4989511;28;19916;-44
2023/11/11 18:54:24;;;;;;;;;;;;;;;;;;4991025;28;20028;-44
2023/11/11 18:56:50;;;;;;;;;;;;;;;;;;4989354;28;20004;-43
2023/11/11 18:59:19;;;;;;;;;;;;;;;;;;4989765;28;19968;-43
2023/11/11 19:01:44;;;;;;;;;;;;;;;;;;4985156;28;19914;-43
2023/11/11 19:04:11;;;;;;;;;;;;;;;;;;4987604;28;19921;-45
2023/11/11 19:06:37;;;;;;;;;;;;;;;;;;4984416;28;19956;-43
2023/11/11 19:09:03;;;;;;;;;;;;;;;;;;4986313;28;19964;-43
2023/11/11 19:11:30;;;;;;;;;;;;;;;;;;4992846;28;19968;-44
2023/11/11 19:13:56;;;;;;;;;;;;;;;;;;4970409;28;20001;-44
2023/11/11 19:16:22;;;;;;;;;;;;;;;;;;4989925;28;19917;-43
2023/11/11 19:18:48;;;;;;;;;;;;;;;;;;4986630;28;19972;-43
2023/11/11 19:21:14;;;;;;;;;;;;;;;;;;4987157;28;20577;-44
2023/11/11 19:23:40;;;;;;;;;;;;;;;;;;4988115;28;20078;-43
2023/11/11 19:26:06;;;;;;;;;;;;;;;;;;4985772;28;19921;-43
2023/11/11 19:28:32;;;;;;;;;;;;;;;;;;4987926;28;19925;-42
2023/11/11 19:31:00;;;;;;;;;;;;;;;;;;4987434;28;20224;-43
2023/11/11 19:33:26;;;;;;;;;;;;;;;;;;4987298;28;19914;-44
2023/11/11 19:35:51;;;;;;;;;;;;;;;;;;4988148;28;20357;-44
2023/11/11 19:38:18;;;;;;;;;;;;;;;;;;4986448;28;19975;-46
2023/11/11 19:40:45;;;;;;;;;;;;;;;;;;4986700;28;19917;-44
2023/11/11 19:43:11;;;;;;;;;;;;;;;;;;4988428;28;19910;-45
2023/11/11 19:45:37;;;;;;;;;;;;;;;;;;4971118;28;19913;-43
2023/11/11 19:48:03;;;;;;;;;;;;;;;;;;4987580;28;19909;-43
2023/11/11 19:50:29;;;;;;;;;;;;;;;;;;4987232;28;20283;-43
2023/11/11 19:52:55;;;;;;;;;;;;;;;;;;4988889;28;20422;-43
2023/11/11 19:55:21;;;;;;;;;;;;;;;;;;4988021;28;19914;-44
2023/11/11 19:57:47;;;;;;;;;;;;;;;;;;4987098;28;19975;-43
2023/11/11 20:00:13;;;;;;;;;;;;;;;;;;4988055;28;20000;-43
2023/11/11 20:02:39;;;;;;;;;;;;;;;;;;4988070;28;19910;-44
2023/11/11 20:05:05;;;;;;;;;;;;;;;;;;4969991;28;19913;-43
2023/11/11 20:07:35;;;;;;;;;;;;;;;;;;4986564;28;19922;-43
2023/11/11 20:10:01;;;;;;;;;;;;;;;;;;4969107;28;19956;-44
2023/11/11 20:12:27;;;;;;;;;;;;;;;;;;4987320;28;20429;-44
2023/11/11 20:14:52;;;;;;;;;;;;;;;;;;4988452;28;19961;-43
2023/11/11 20:17:18;;;;;;;;;;;;;;;;;;4969396;28;19914;-43
2023/11/11 20:19:44;;;;;;;;;;;;;;;;;;4986963;28;19918;-43
2023/11/11 20:22:10;;;;;;;;;;;;;;;;;;4987547;28;20430;-42
2023/11/11 20:24:36;;;;;;;;;;;;;;;;;;4988007;28;19914;-43
2023/11/11 20:27:02;;;;;;;;;;;;;;;;;;4986976;28;19914;-45
2023/11/11 20:29:28;;;;;;;;;;;;;;;;;;4986270;28;19921;-44
2023/11/11 20:31:54;;;;;;;;;;;;;;;;;;4987300;28;19920;-44
2023/11/11 20:34:20;;;;;;;;;;;;;;;;;;4987444;28;19918;-43
2023/11/11 20:36:46;;;;;;;;;;;;;;;;;;4968353;28;19953;-42
2023/11/11 20:39:13;;;;;;;;;;;;;;;;;;4986141;28;19992;-43
2023/11/11 20:41:39;;;;;;;;;;;;;;;;;;4969015;28;19913;-44
2023/11/11 20:44:05;;;;;;;;;;;;;;;;;;4968257;28;20012;-43
2023/11/11 20:46:30;;;;;;;;;;;;;;;;;;4968536;28;20302;-44
2023/11/11 20:48:56;;;;;;;;;;;;;;;;;;4987792;28;19922;-44
2023/11/11 20:51:23;;;;;;;;;;;;;;;;;;4987694;28;19914;-43
2023/11/11 20:53:48;;;;;;;;;;;;;;;;;;4986101;28;19945;-42
2023/11/11 20:56:19;;;;;;;;;;;;;;;;;;4987321;28;19956;-44
2023/11/11 20:58:46;;;;;;;;;;;;;;;;;;4968645;28;19913;-43
2023/11/11 21:01:12;;;;;;;;;;;;;;;;;;4985638;28;19914;-44
2023/11/11 21:03:37;;;;;;;;;;;;;;;;;;4986454;28;19910;-43
2023/11/11 21:06:03;;;;;;;;;;;;;;;;;;4986159;28;20417;-43
2023/11/11 21:08:29;;;;;;;;;;;;;;;;;;4968211;28;19928;-43
2023/11/11 21:10:55;;;;;;;;;;;;;;;;;;4988099;28;19964;-43
2023/11/11 21:13:21;;;;;;;;;;;;;;;;;;4986317;28;19913;-43
2023/11/11 21:15:47;;;;;;;;;;;;;;;;;;4987183;28;19921;-42
2023/11/11 21:18:14;;;;;;;;;;;;;;;;;;4987020;28;19921;-43
2023/11/11 21:20:40;;;;;;;;;;;;;;;;;;4986670;28;19960;-43
2023/11/11 21:23:06;;;;;;;;;;;;;;;;;;4968329;28;19914;-43
2023/11/11 21:25:31;;;;;;;;;;;;;;;;;;4984755;28;20065;-43
2023/11/11 21:27:57;;;;;;;;;;;;;;;;;;4968327;28;20410;-43
2023/11/11 21:30:24;;;;;;;;;;;;;;;;;;4986134;28;19914;-43
2023/11/11 21:32:51;;;;;;;;;;;;;;;;;;4984209;28;19917;-42
2023/11/11 21:35:17;;;;;;;;;;;;;;;;;;4986828;28;20540;-43
2023/11/11 21:37:43;;;;;;;;;;;;;;;;;;4986957;28;20052;-42
2023/11/11 21:40:10;;;;;;;;;;;;;;;;;;4968061;28;20112;-44
2023/11/11 21:42:36;;;;;;;;;;;;;;;;;;4986791;28;19916;-43
2023/11/11 21:45:02;;;;;;;;;;;;;;;;;;4987118;28;19968;-44
2023/11/11 21:47:28;;;;;;;;;;;;;;;;;;4987177;28;19910;-43
2023/11/11 21:49:54;;;;;;;;;;;;;;;;;;4987264;28;20406;-43
2023/11/11 21:52:20;;;;;;;;;;;;;;;;;;4986674;28;19921;-43
2023/11/11 21:54:45;;;;;;;;;;;;;;;;;;4986645;28;20391;-46
2023/11/11 21:57:12;;;;;;;;;;;;;;;;;;4986431;28;20354;-43
2023/11/11 21:59:38;;;;;;;;;;;;;;;;;;4986150;28;20049;-43
2023/11/11 22:02:03;;;;;;;;;;;;;;;;;;4986412;28;19914;-44
2023/11/11 22:04:30;;;;;;;;;;;;;;;;;;4987329;28;19972;-43
2023/11/11 22:06:56;;;;;;;;;;;;;;;;;;4973308;28;20424;-43
2023/11/11 22:09:22;;;;;;;;;;;;;;;;;;4989121;28;19918;-43
2023/11/11 22:11:48;;;;;;;;;;;;;;;;;;4990321;28;19921;-44
2023/11/11 22:14:19;;;;;;;;;;;;;;;;;;4987856;28;21309;-42
2023/11/11 22:16:45;;;;;;;;;;;;;;;;;;4988949;28;19990;-43
2023/11/11 22:19:10;;;;;;;;;;;;;;;;;;4990568;28;20371;-43
2023/11/11 22:21:36;;;;;;;;;;;;;;;;;;4990414;28;19914;-43
2023/11/11 22:24:02;;;;;;;;;;;;;;;;;;4989552;28;20417;-45
2023/11/11 22:26:28;;;;;;;;;;;;;;;;;;4989986;28;19948;-42
2023/11/11 22:28:54;;;;;;;;;;;;;;;;;;4972543;28;19924;-44
2023/11/11 22:31:20;;;;;;;;;;;;;;;;;;4990550;28;19942;-44
2023/11/11 22:33:46;;;;;;;;;;;;;;;;;;4972459;28;20409;-45
2023/11/11 22:36:13;;;;;;;;;;;;;;;;;;4988392;28;19937;-45
2023/11/11 22:38:39;;;;;;;;;;;;;;;;;;4988650;28;19957;-43
2023/11/11 22:41:04;;;;;;;;;;;;;;;;;;4988712;28;19957;-44
2023/11/11 22:43:30;;;;;;;;;;;;;;;;;;4988320;28;20283;-43